Latest Coastal Weather Observations for Portland Airport

IDV60701

Issued at 11:32 am EDT Tuesday 28 March 2017 (issued every 10 minutes, with the page automatically refreshed every 10 minutes)

About coastal observations | Map of coastal stations | Coastal observations for VIC | Marine services | Other Formats
Station Details ID: 090171 Name: CASHMORE AIRPORT Lat: -38.31 Lon: 141.47 Height: 80.9 m
Data from the previous 72 hours. | See also: Recent months at Portland Airport
Date/Time
EDT
Temp
°C
Wind Pressure Rain since
9am
mm
Weather Cloud Vis
km
Sea
Height
m
Swell
Dir  Spd
kts
Gust
kts
hPa Trend Height
m
Period
s
Dir
28/11:30am 17.7 WNW 15 21 1013.6 - 0.0 - Cloudy 10 - - - -
28/11:00am 18.0 WNW 14 20 1013.7 - 0.0 - Partly cloudy 10 - - - -
28/10:30am 17.4 WNW 13 19 1013.7 - 0.0 - Cloudy 10 - - - -
28/10:00am 16.7 NW 9 15 1013.6 - 0.0 - Partly cloudy 10 - - - -
28/09:30am 15.0 NNW 8 13 1013.5 - 0.0 - Partly cloudy 10 - - - -
28/09:00am 14.0 NW 9 13 1013.4 - 1.0 - Cloudy 10 - - - -
28/08:30am 13.4 NNW 7 9 1013.2 - 1.0 - Partly cloudy 10 - - - -
28/08:00am 12.6 NNW 9 13 1013.1 - 1.0 - Partly cloudy 10 - - - -
28/07:30am 13.7 NW 9 12 1012.8 - 1.0 - Partly cloudy 10 - - - -
28/07:00am 13.7 NW 9 13 1012.8 - 1.0 - Partly cloudy 10 - - - -
28/06:30am 14.1 NW 12 17 1012.6 - 1.0 - Partly cloudy 10 - - - -
28/06:00am 13.7 NW 10 15 1012.6 - 1.0 - Partly cloudy 10 - - - -
28/05:30am 12.8 NW 9 13 1012.5 - 1.0 - - 10 - - - -
28/05:00am 12.9 NW 9 11 1012.4 - 1.0 - Partly cloudy 10 - - - -
28/04:30am 13.2 NW 9 11 1012.3 - 1.0 - Partly cloudy 10 - - - -
28/04:00am 12.6 NNW 8 10 1012.5 - 1.0 - Partly cloudy 10 - - - -
28/03:30am 12.9 NNW 7 10 1012.6 - 1.0 - Partly cloudy 10 - - - -
28/03:00am 13.4 NW 9 13 1012.7 - 1.0 - Mostly cloudy 10 - - - -
28/02:30am 12.8 NNW 7 10 1012.8 - 1.0 - Cloudy 10 - - - -
28/02:00am 12.4 NNW 9 11 1013.0 - 1.0 - Partly cloudy 10 - - - -
28/01:30am 12.3 NNW 7 8 1013.1 - 1.0 - Partly cloudy 10 - - - -
28/01:00am 13.5 NW 8 11 1013.0 - 1.0 - Partly cloudy 10 - - - -
28/12:30am 12.7 NNW 7 9 1012.9 - 1.0 - Partly cloudy 10 - - - -
28/12:00am 12.6 N 6 8 1012.9 - 1.0 - Mostly cloudy 10 - - - -
 
Date/Time
EDT
Temp
°C
Wind Pressure Rain since
9am
mm
Weather Cloud Vis
km
Sea
Height
m
Swell
Dir  Spd
kts
Gust
kts
hPa Trend Height
m
Period
s
Dir
27/11:30pm 14.1 NW 7 10 1013.1 - 1.0 - Partly cloudy 10 - - - -
27/11:00pm 14.0 NW 8 11 1013.0 - 1.0 - - 10 - - - -
27/10:30pm 14.2 NW 9 13 1013.1 - 1.0 - Partly cloudy 9 - - - -
27/10:00pm 14.6 NW 9 11 1012.8 - 1.0 - Partly cloudy 9 - - - -
27/09:30pm 15.1 NW 10 13 1012.9 - 1.0 - Partly cloudy 10 - - - -
27/09:00pm 15.3 WNW 8 11 1012.6 - 1.0 - Cloudy 10 - - - -
27/08:30pm 15.0 WNW 10 12 1012.1 - 1.0 - Partly cloudy 10 - - - -
27/08:00pm 15.5 WNW 13 20 1011.8 - 1.0 - Cloudy 10 - - - -
27/07:30pm 15.7 WNW 13 18 1011.3 - 1.0 - Cloudy 10 - - - -
27/07:00pm 16.2 WNW 14 19 1011.0 - 1.0 - Partly cloudy 10 - - - -
27/06:30pm 17.0 WNW 16 23 1010.7 - 1.0 - - 10 - - - -
27/06:00pm 17.7 WNW 17 25 1010.3 - 1.0 - Cloudy 10 - - - -
27/05:30pm 17.6 WNW 17 24 1010.4 - 1.0 - Partly cloudy 10 - - - -
27/05:00pm 18.8 WNW 20 31 1010.3 - 1.0 - Cloudy 10 - - - -
27/04:42pm 18.7 WNW 20 31 1010.2 - 1.0 - Cloudy 10 - - - -
27/04:30pm 19.2 WNW 20 27 1010.2 - 1.0 - Partly cloudy 10 - - - -
27/04:10pm 19.1 WNW 21 31 1010.0 - 1.0 - Partly cloudy 10 - - - -
27/04:00pm 19.1 WNW 21 29 1009.8 - 1.0 - Partly cloudy 10 - - - -
27/03:42pm 19.1 WNW 19 29 1009.9 - 1.0 - Partly cloudy 10 - - - -
27/03:30pm 19.2 WNW 23 31 1009.8 - 1.0 - Partly cloudy 10 - - - -
27/03:07pm 19.5 WNW 19 31 1009.6 - 1.0 - Partly cloudy 10 - - - -
27/03:00pm 19.3 WNW 19 28 1009.5 - 1.0 - Partly cloudy 10 - - - -
27/02:30pm 19.3 WNW 20 31 1009.6 - 1.0 - Partly cloudy 10 - - - -
27/02:21pm 18.6 WNW 20 31 1009.4 - 1.0 - Partly cloudy 10 - - - -
27/02:00pm 18.7 WNW 19 28 1009.7 - 1.0 - Partly cloudy 10 - - - -
27/01:33pm 17.2 NW 17 27 1009.6 - 1.0 - Partly cloudy 10 - - - -
27/01:30pm 16.6 NW 18 27 1009.6 - 1.0 - Partly cloudy 10 - - - -
27/01:00pm 15.8 NW 15 20 1009.3 - 1.0 - Partly cloudy 10 - - - -
27/12:30pm 14.8 NW 14 20 1009.5 - 1.0 - Partly cloudy 10 - - - -
27/12:00pm 14.8 WNW 13 19 1009.3 - 0.8 Rain Cloudy 8 - - - -
27/11:30am 14.7 WNW 15 22 1009.5 - 0.2 - Partly cloudy 10 - - - -
27/11:00am 15.8 W 17 25 1008.8 - 0.0 - Partly cloudy 10 - - - -
27/10:36am 16.4 W 20 30 1007.8 - 0.0 - Partly cloudy 10 - - - -
27/10:35am 16.6 W 21 30 1008.0 - 0.0 - Partly cloudy 10 - - - -
27/10:30am 17.2 W 21 30 1008.2 - 0.0 - Partly cloudy 10 - - - -
27/10:25am 17.7 W 20 30 1007.3 - 0.0 - Partly cloudy 10 - - - -
27/10:00am 17.5 WNW 19 28 1006.6 - 0.0 - Partly cloudy 10 - - - -
27/09:33am 17.9 WNW 20 30 1005.7 - 0.0 - Partly cloudy 10 - - - -
27/09:30am 18.0 WNW 21 30 1005.6 - 0.0 - Partly cloudy 10 - - - -
27/09:00am 18.5 WNW 19 27 1004.4 - 0.0 - Cloudy 10 - - - -
27/08:31am 18.9 WNW 23 35 1003.9 - 0.0 - Partly cloudy 10 - - - -
27/08:30am 18.9 WNW 23 32 1003.9 - 0.0 - Partly cloudy 10 - - - -
27/08:17am 19.0 WNW 20 30 1003.0 - 0.0 - - 10 - - - -
27/08:00am 19.4 WNW 21 29 1002.5 - 0.0 - - 10 - - - -
27/07:47am 20.6 WNW 20 37 1002.1 - 0.0 - - 10 - - - -
27/07:33am 23.0 NW 17 27 1001.9 - 0.0 - Partly cloudy 10 - - - -
27/07:30am 26.8 NW 16 25 1001.6 - 0.0 - Partly cloudy 10 - - - -
27/07:13am 28.0 NW 15 27 1001.0 - 0.0 - Partly cloudy 10 - - - -
27/07:00am 27.9 NNW 14 23 1000.5 - 0.0 - - 10 - - - -
27/06:30am 27.3 N 17 26 999.5 - 0.0 - - 10 - - - -
27/06:00am 26.8 N 17 30 999.1 - 0.0 - Partly cloudy 10 - - - -
27/05:30am 26.9 N 17 27 999.5 - 0.0 - - 10 - - - -
27/05:00am 26.9 N 16 26 999.9 - 0.0 - - 10 - - - -
27/04:59am 26.8 N 16 26 1000.0 - 0.0 - - 10 - - - -
27/04:30am 26.2 N 14 22 1000.8 - 0.0 - - 10 - - - -
27/04:00am 25.7 N 14 21 1001.4 - 0.0 - Partly cloudy 10 - - - -
27/03:30am 25.1 N 11 20 1002.1 - 0.0 - - 10 - - - -
27/03:00am 24.9 N 13 21 1002.5 - 0.0 - Cloudy 10 - - - -
27/02:30am 24.5 N 12 18 1003.3 - 0.0 - - 10 - - - -
27/02:00am 24.7 N 12 19 1003.8 - 0.0 - - 10 - - - -
27/01:30am 24.2 N 12 17 1004.5 - 0.0 - - 10 - - - -
27/01:00am 24.0 N 10 17 1005.2 - 0.0 - - 10 - - - -
27/12:30am 23.6 N 12 16 1005.8 - 0.0 - Partly cloudy 10 - - - -
27/12:00am 22.9 N 9 13 1006.4 - 0.0 - Cloudy 10 - - - -
 
Date/Time
EDT
Temp
°C
Wind Pressure Rain since
9am
mm
Weather Cloud Vis
km
Sea
Height
m
Swell
Dir  Spd
kts
Gust
kts
hPa Trend Height
m
Period
s
Dir
26/11:30pm 21.8 NNE 8 12 1006.1 - 0.0 - Partly cloudy 10 - - - -
26/11:00pm 20.8 N 7 9 1007.6 - 0.0 - - 10 - - - -
26/10:30pm 20.7 NNE 7 9 1008.3 - 0.0 - Partly cloudy 10 - - - -
26/10:00pm 19.7 NNE 7 8 1008.6 - 0.0 - - 10 - - - -
26/09:30pm 18.6 NNE 6 7 1008.8 - 0.0 - - 10 - - - -
26/09:00pm 18.5 NE 5 7 1008.8 - 0.0 - Mostly cloudy 10 - - - -
26/08:30pm 18.3 ENE 5 7 1008.8 - 0.0 - - 10 - - - -
26/08:00pm 18.6 E 6 9 1008.7 - 0.0 - - 10 - - - -
26/07:30pm 18.9 ENE 6 9 1009.0 - 0.0 - - 10 - - - -
26/07:00pm 19.5 E 7 9 1009.2 - 0.0 - - 10 - - - -
26/06:30pm 20.9 E 7 10 1009.4 - 0.0 - - 10 - - - -
26/06:00pm 21.3 E 8 10 1009.6 - 0.0 - Mostly cloudy 10 - - - -
26/05:30pm 22.7 E 7 11 1009.7 - 0.0 - - 10 - - - -
26/05:00pm 23.5 E 6 10 1010.0 - 0.0 - - 10 - - - -
26/04:30pm 23.7 E 8 12 1010.2 - 0.0 - - 10 - - - -
26/04:00pm 23.9 E 6 8 1011.0 - 0.0 - - 10 - - - -
26/03:30pm 23.6 E 6 8 1011.5 - 0.0 - - 10 - - - -
26/03:00pm 23.4 E 6 9 1012.1 - 0.0 - - 10 - - - -
26/02:30pm 22.8 ENE 6 9 1012.3 - 0.0 - - 10 - - - -
26/02:00pm 22.3 E 7 12 1012.7 - 0.0 - - 10 - - - -
26/01:30pm 23.3 ENE 6 9 1013.2 - 0.0 - - 10 - - - -
26/01:00pm 21.1 ENE 7 11 1014.1 - 0.0 - Partly cloudy 10 - - - -
26/12:30pm 20.3 ENE 8 12 1013.9 - 0.0 - Partly cloudy 10 - - - -
26/12:00pm 19.8 ENE 7 11 1014.2 - 0.0 - Mostly cloudy 10 - - - -
26/11:30am 19.1 ENE 7 10 1014.7 - 0.0 - Cloudy 10 - - - -
26/11:00am 18.8 E 7 11 1014.7 - 0.0 - Cloudy 10 - - - -
26/10:30am 18.3 ENE 4 7 1015.0 - 0.0 - Cloudy 10 - - - -
26/10:00am 17.8 ESE 4 7 1015.2 - 0.0 - Cloudy 10 - - - -
26/09:30am 17.4 SSE 4 5 1015.6 - 0.0 - Cloudy 10 - - - -
26/09:00am 17.1 CALM 0 1 1015.5 - 0.2 - Cloudy 10 - - - -
26/08:30am 16.7 SSE 1 4 1015.1 - 0.2 - Cloudy 10 - - - -
26/08:00am 16.4 S 2 5 1014.8 - 0.2 - Cloudy 10 - - - -
26/07:30am 16.4 CALM 0 3 1014.5 - 0.2 - Cloudy 10 - - - -
26/07:00am 16.2 CALM 0 0 1014.0 - 0.2 - Cloudy 10 - - - -
26/06:30am 16.3 CALM 0 0 1014.2 - 0.2 - Cloudy 10 - - - -
26/06:00am 16.5 CALM 0 0 1014.1 - 0.2 - Cloudy 10 - - - -
26/05:30am 16.4 CALM 0 0 1014.0 - 0.2 - Cloudy 10 - - - -
26/05:00am 16.5 SSW 2 3 1013.9 - 0.2 - Cloudy 10 - - - -
26/04:30am 16.6 S 3 4 1013.9 - 0.2 - Cloudy 10 - - - -
26/04:00am 16.6 CALM 0 0 1014.1 - 0.2 - Cloudy 10 - - - -
26/03:30am 16.7 S 4 6 1014.4 - 0.2 - Cloudy 10 - - - -
26/03:00am 16.9 S 4 4 1014.2 - 0.2 - Cloudy 10 - - - -
26/02:30am 16.8 S 1 4 1014.7 - 0.2 - Cloudy 10 - - - -
26/02:00am 16.9 S 1 4 1014.8 - 0.2 - Cloudy 10 - - - -
26/01:30am 16.9 S 1 4 1014.8 - 0.2 - Cloudy 10 - - - -
26/01:00am 17.0 CALM 0 0 1014.9 - 0.2 - Cloudy 10 - - - -
26/12:30am 16.9 S 2 4 1014.9 - 0.2 - Cloudy 10 - - - -
26/12:00am 16.8 S 3 4 1015.4 - 0.2 - Cloudy 10 - - - -
 
Date/Time
EDT
Temp
°C
Wind Pressure Rain since
9am
mm
Weather Cloud Vis
km
Sea
Height
m
Swell
Dir  Spd
kts
Gust
kts
hPa Trend Height
m
Period
s
Dir
25/11:30pm 16.9 SSW 3 5 1015.4 - 0.2 - Cloudy 10 - - - -
25/11:00pm 17.1 SSW 2 4 1015.2 - 0.2 - Cloudy 10 - - - -
25/10:30pm 17.0 CALM 0 3 1015.4 - 0.2 - Partly cloudy 10 - - - -
25/10:00pm 17.0 WSW 4 4 1015.0 - 0.2 - Partly cloudy 10 - - - -
25/09:30pm 17.0 WSW 4 5 1014.9 - 0.2 - Partly cloudy 10 - - - -
25/09:00pm 17.0 WSW 4 5 1014.6 - 0.2 - Mostly cloudy 10 - - - -
25/08:30pm 17.1 WSW 5 6 1014.4 - 0.2 - Cloudy 10 - - - -
25/08:00pm 17.1 SW 5 7 1013.9 - 0.2 - Partly cloudy 10 - - - -
25/07:55pm 17.1 SW 6 8 1013.8 - 0.2 - Partly cloudy 10 - - - -
25/07:30pm 17.5 WSW 6 7 1013.7 - 0.2 - Partly cloudy 10 - - - -
25/07:00pm 17.8 WSW 6 8 1013.6 - 0.2 - Partly cloudy 10 - - - -
25/06:30pm 18.1 WSW 7 10 1013.3 - 0.2 - Partly cloudy 10 - - - -
25/06:00pm 18.0 WSW 7 10 1013.2 - 0.2 - Cloudy 10 - - - -
25/05:30pm 18.3 WSW 10 13 1013.0 - 0.2 - Partly cloudy 10 - - - -
25/05:00pm 18.6 WSW 9 12 1012.8 - 0.2 - Partly cloudy 10 - - - -
25/04:30pm 18.8 W 9 12 1012.7 - 0.2 - Cloudy 10 - - - -
25/04:00pm 18.8 SSW 7 11 1012.5 - 0.2 - Cloudy 10 - - - -
25/03:30pm 18.9 W 10 13 1012.4 - 0.2 - Cloudy 10 - - - -
25/03:00pm 19.6 W 11 14 1012.3 - 0.2 - Partly cloudy 10 - - - -
25/02:56pm 19.7 W 11 14 1012.4 - 0.2 - Partly cloudy 10 - - - -
25/02:30pm 21.3 W 12 14 1012.3 - 0.2 - Partly cloudy 10 - - - -
25/02:00pm 20.9 WSW 12 15 1012.2 - 0.2 - - 10 - - - -
25/01:30pm 22.5 W 11 13 1012.3 - 0.2 - - 10 - - - -
25/01:00pm 22.5 W 9 12 1012.5 - 0.2 - - 10 - - - -
25/12:30pm 23.3 W 10 13 1012.6 - 0.2 - - 10 - - - -
25/12:00pm 23.7 WSW 7 10 1012.5 - 0.0 - - 10 - - - -

Other Formats:

Comma delimited format used in spreadsheet applications
http://www.bom.gov.au/fwo/IDV60701/IDV60701.94828.axf

JavaScript Object Notation format (JSON) in row-major order
http://www.bom.gov.au/fwo/IDV60701/IDV60701.94828.json